METAR Analyzer

一覧表示

Hello, Guest. (Login)

TNCM/SXM  -  プリンセス・ジュリアナ/セントマーティン

観測日時
2021-01-27 17:00 (UTC) (16分前)
気温
29
露点
20
湿数
9
相対湿度
58.4%
QNH
1019hPa
推定現地気圧
1018.5hPa
推定海面気圧
1019.0hPa
体感温度
22.8
(無風時)
26.6
HI
30.8
気温前日比
+3.5
体感温度前日比
+4.1
HI前日比
+4.7
水平視程
>10000m
鉛直視程
データなし
雲底高度
No dense clouds
V/I
VMC (VFR)
RVR
No RVR data
卓越風
10kt from 60° (30° ~ 90°)
ガスト
No gust
降水
報告なし
その他の天気
報告なし
散在する雲 @ 1800ft AGL

TNCM 271700Z 06010KT 030V090 9999 SCT018 29/20 Q1019 NOSIG

TIST/STT  -  シリル・E・キング

観測日時
2021-01-27 16:53 (UTC) (23分前)
気温
30
露点
17.8
湿数
12.2
相対湿度
48%
QNH
1017.9hPa
推定現地気圧
1017.1hPa
推定海面気圧
1017.9hPa
体感温度
23.3
(無風時)
26.6
HI
30.7
気温前日比
+1.1
体感温度前日比
+0.9
HI前日比
±0
水平視程
>10SM
鉛直視程
データなし
雲底高度
No dense clouds
V/I
VMC (VFR)
RVR
No RVR data
卓越風
10kt from 80°
ガスト
No gust
降水
報告なし
その他の天気
報告なし
目立った雲なし

TIST 271653Z 08010KT 10SM CLR 30/18 A3006 RMK AO2 SLP178 T03000178

MUHA/HAV  -  ホセ・マルティ

観測日時
2021-01-27 16:55 (UTC) (21分前)
気温
29
露点
19
湿数
10
相対湿度
54.8%
QNH
1019hPa
推定現地気圧
1011.3hPa
推定海面気圧
1018.6hPa
体感温度
23.7
(無風時)
26.4
HI
30.3
気温前日比
+1
体感温度前日比
+1.2
HI前日比
+0.6
水平視程
9000m
鉛直視程
データなし
雲底高度
No dense clouds
V/I
VMC (VFR)
RVR
No RVR data
卓越風
4kt from VRB
ガスト
No gust
降水
報告なし
その他の天気
報告なし
散在する雲 @ 3000ft AGL

MUHA 271655Z VRB04KT 9000 SCT030 29/19 Q1019

MDSD/SDQ  -  ラス・アメリカス

観測日時
2021-01-27 17:00 (UTC) (16分前)
気温
31
露点
19
湿数
12
相対湿度
48.9%
QNH
1017hPa
推定現地気圧
1015.0hPa
推定海面気圧
1016.9hPa
体感温度
25.2
(無風時)
27.3
HI
32.4
気温前日比
+7
体感温度前日比
+5.8
HI前日比
+7.6
水平視程
>10000m
鉛直視程
データなし
雲底高度
No dense clouds
V/I
VMC (VFR)
RVR
No RVR data
卓越風
5kt from 100°
ガスト
No gust
降水
報告なし
その他の天気
報告なし
散在する雲 @ 2000ft AGL

MDSD 271700Z 10005KT 9999 SCT020 31/19 Q1017

MDPC/PUJ  -  プンタ・カーナ

観測日時
2021-01-27 17:00 (UTC) (16分前)
気温
28
露点
18
湿数
10
相対湿度
54.6%
QNH
1019hPa
推定現地気圧
1017.3hPa
推定海面気圧
1018.9hPa
体感温度
20.9
(無風時)
25.6
HI
28.9
気温前日比
+2
体感温度前日比
+0.8
HI前日比
+2.1
水平視程
>10000m
鉛直視程
データなし
雲底高度
No dense clouds
V/I
VMC (VFR)
RVR
No RVR data
卓越風
15kt from 100°
ガスト
No gust
降水
報告なし
その他の天気
報告なし
少しの雲 @ 2500ft AGL

MDPC 271700Z 10015KT 9999 FEW025 28/18 Q1019

株式会社マネーパートナーズ 【Manepa Card】

TJSJ/SJU  -  ルイス・ムニョス・マリン

観測日時
2021-01-27 16:56 (UTC) (20分前)
気温
27.8
露点
17.8
湿数
10
相対湿度
54.5%
QNH
1018.3hPa
推定現地気圧
1017.9hPa
推定海面気圧
1018.2hPa
体感温度
20.7
(無風時)
25.5
HI
28.6
気温前日比
-1.1
体感温度前日比
-1.8
HI前日比
-2.7
水平視程
>10SM
鉛直視程
データなし
雲底高度
No dense clouds
V/I
VMC (VFR)
RVR
No RVR data
卓越風
14kt from 70°
ガスト
No gust
降水
報告なし
その他の天気
報告なし
少しの雲 @ 3700ft AGL / 少しの雲 @ 4400ft AGL

TJSJ 271656Z 07014KT 10SM FEW037 FEW044 28/18 A3007 RMK AO2 SLP182 T02780178

11.2msec